CST,Max TemperatureF,Mean TemperatureF,Min TemperatureF,Max Dew PointF,MeanDew PointF,Min DewpointF,Max Humidity, Mean Humidity, Min Humidity, Max Sea Level PressureIn, Mean Sea Level PressureIn, Min Sea Level PressureIn, Max VisibilityMiles, Mean VisibilityMiles, Min VisibilityMiles, Max Wind SpeedMPH, Mean Wind SpeedMPH, Max Gust SpeedMPH,PrecipitationIn, CloudCover, Events, WindDirDegrees
2012-12-1,82,57,32,43,30,22,82,46,11,30.07,29.99,29.90,10,10,10,16,5,23,0.00,0,,235
2012-12-2,80,56,33,49,36,22,100,74,12,30.11,30.02,29.91,10,6,0,10,4,,0.00,2,Fog,23
2012-12-3,78,62,46,52,35,21,100,60,12,30.00,29.94,29.85,10,2,0,12,6,,0.00,0,Fog,161
2012-12-4,66,54,39,35,31,22,63,46,29,30.31,30.21,30.01,10,10,10,12,6,,0.00,0,,11
2012-12-5,70,51,32,32,29,23,73,47,24,30.27,30.11,29.92,10,10,9,15,6,,0.00,0,,144
2012-12-6,80,56,33,31,26,20,73,39,12,29.90,29.82,29.72,10,10,9,12,6,,0.00,0,,285
2012-12-7,73,55,37,30,25,19,59,37,17,29.86,29.79,29.72,10,10,10,10,6,,0.00,0,,4
2012-12-8,75,54,32,30,25,20,64,35,16,29.88,29.80,29.72,10,10,10,23,8,31,0.00,0,,269
2012-12-9,68,54,36,33,26,10,56,36,21,30.19,29.86,29.74,10,10,10,30,11,41,0.00,1,,356
2012-12-10,44,34,23,21,16,10,75,50,30,30.24,30.14,30.01,10,10,10,17,10,28,0.00,2,,340
2012-12-11,55,36,18,14,8,3,60,37,16,30.15,30.07,30.02,10,10,10,16,6,23,0.00,0,,342
2012-12-12,64,40,17,18,8,0,50,29,11,30.19,30.10,30.01,10,10,10,13,5,,0.00,0,,124
2012-12-13,66,48,30,45,28,19,83,48,24,30.10,30.02,29.94,10,10,10,17,11,24,0.00,0,,131
2012-12-14,73,60,46,49,40,23,89,58,27,29.93,29.80,29.61,10,9,2,46,20,55,0.00,3,Rain,198
2012-12-15,61,52,42,32,28,22,52,41,31,29.95,29.88,29.83,10,10,10,17,11,23,0.00,0,,262
2012-12-16,64,50,37,32,30,26,70,46,24,29.93,29.84,29.75,10,10,10,28,12,40,0.00,0,,261
2012-12-17,66,49,32,28,25,21,73,45,20,29.98,29.92,29.83,10,10,10,25,10,33,0.00,0,,272
2012-12-18,78,56,33,23,17,13,54,26,9,29.84,29.76,29.67,10,10,9,21,9,25,0.00,0,,265
2012-12-19,73,53,33,32,16,4,42,26,9,30.17,29.76,29.58,10,7,2,39,13,52,0.00,3,,303
2012-12-20,48,34,19,12,4,-4,54,31,14,30.50,30.41,30.22,10,10,7,8,6,,0.00,0,,313
2012-12-21,55,35,15,3,-1,-5,43,25,11,30.46,30.34,30.22,10,10,10,9,6,,0.00,0,,81
2012-12-22,57,40,24,10,5,1,37,23,12,30.19,30.10,29.99,10,10,10,12,6,,0.00,0,,147
2012-12-23,68,50,32,31,18,6,53,33,23,30.02,29.97,29.91,10,10,10,14,5,21,0.00,0,,301
2012-12-24,66,47,28,24,19,15,63,37,19,29.96,29.82,29.63,10,10,10,14,6,,0.00,0,,270
2012-12-25,55,40,23,32,18,10,59,43,29,30.27,29.96,29.58,10,10,7,28,16,36,0.00,1,,336
2012-12-26,42,30,19,18,14,9,65,54,37,30.28,30.11,29.90,10,10,10,12,5,,0.00,0,,88
2012-12-27,55,40,24,19,17,12,65,46,22,29.87,29.79,29.68,10,10,10,18,6,24,0.00,0,,104
2012-12-28,52,40,24,29,19,10,58,44,23,30.23,30.01,29.82,10,10,10,16,8,21,0.00,2,,357
2012-12-29,50,34,17,16,12,8,68,44,26,30.43,30.31,30.23,10,10,10,13,7,21,0.00,0,,83
2012-12-30,46,40,34,32,19,12,89,48,32,30.21,30.07,29.96,10,10,10,22,14,28,0.02,2,Rain,134
2012-12-31,57,49,39,37,30,25,76,49,29,30.03,29.97,29.89,10,10,10,28,13,36,0.00,2,,272